sensor_id;sensor_type;location;lat;lon;timestamp;P1;durP1;ratioP1;P2;durP2;ratioP2
37701;SDS011;23548;51.196;6.838;2023-09-18T00:00:40;13.13;;;10.43;;
37701;SDS011;23548;51.196;6.838;2023-09-18T00:03:07;11.88;;;9.77;;
37701;SDS011;23548;51.196;6.838;2023-09-18T00:05:33;16.38;;;10.65;;
37701;SDS011;23548;51.196;6.838;2023-09-18T00:07:59;14.82;;;10.85;;
37701;SDS011;23548;51.196;6.838;2023-09-18T00:10:27;19.02;;;11.25;;
37701;SDS011;23548;51.196;6.838;2023-09-18T00:12:56;16.88;;;10.73;;
37701;SDS011;23548;51.196;6.838;2023-09-18T00:15:22;17.65;;;10.93;;
37701;SDS011;23548;51.196;6.838;2023-09-18T00:17:48;14.68;;;9.63;;
37701;SDS011;23548;51.196;6.838;2023-09-18T00:20:14;15.65;;;10.90;;
37701;SDS011;23548;51.196;6.838;2023-09-18T00:22:42;19.00;;;11.30;;
37701;SDS011;23548;51.196;6.838;2023-09-18T00:25:08;18.48;;;11.35;;
37701;SDS011;23548;51.196;6.838;2023-09-18T00:27:34;17.63;;;11.45;;
37701;SDS011;23548;51.196;6.838;2023-09-18T00:30:01;18.45;;;10.80;;
37701;SDS011;23548;51.196;6.838;2023-09-18T00:32:28;18.92;;;10.73;;
37701;SDS011;23548;51.196;6.838;2023-09-18T00:34:54;20.70;;;10.63;;
37701;SDS011;23548;51.196;6.838;2023-09-18T00:37:20;17.85;;;10.98;;
37701;SDS011;23548;51.196;6.838;2023-09-18T00:39:46;16.73;;;11.32;;
37701;SDS011;23548;51.196;6.838;2023-09-18T00:42:11;15.98;;;10.73;;
37701;SDS011;23548;51.196;6.838;2023-09-18T00:44:39;15.68;;;11.20;;
37701;SDS011;23548;51.196;6.838;2023-09-18T00:47:06;16.58;;;10.75;;
37701;SDS011;23548;51.196;6.838;2023-09-18T00:49:33;15.60;;;10.57;;
37701;SDS011;23548;51.196;6.838;2023-09-18T00:52:01;16.40;;;10.27;;
37701;SDS011;23548;51.196;6.838;2023-09-18T00:54:28;20.00;;;10.77;;
37701;SDS011;23548;51.196;6.838;2023-09-18T00:56:55;16.50;;;10.65;;
37701;SDS011;23548;51.196;6.838;2023-09-18T00:59:21;11.80;;;9.90;;
37701;SDS011;23548;51.196;6.838;2023-09-18T01:01:47;13.98;;;10.15;;
37701;SDS011;23548;51.196;6.838;2023-09-18T01:04:16;15.68;;;10.73;;
37701;SDS011;23548;51.196;6.838;2023-09-18T01:06:42;17.83;;;10.48;;
37701;SDS011;23548;51.196;6.838;2023-09-18T01:09:08;17.38;;;10.95;;
37701;SDS011;23548;51.196;6.838;2023-09-18T01:16:59;22.17;;;11.38;;
37701;SDS011;23548;51.196;6.838;2023-09-18T01:19:38;20.40;;;11.40;;
37701;SDS011;23548;51.196;6.838;2023-09-18T01:25:04;13.75;;;9.77;;
37701;SDS011;23548;51.196;6.838;2023-09-18T01:27:31;17.17;;;11.82;;
37701;SDS011;23548;51.196;6.838;2023-09-18T01:29:57;16.33;;;10.68;;
37701;SDS011;23548;51.196;6.838;2023-09-18T01:32:24;16.27;;;10.13;;
37701;SDS011;23548;51.196;6.838;2023-09-18T01:34:53;17.40;;;9.93;;
37701;SDS011;23548;51.196;6.838;2023-09-18T01:37:27;17.88;;;9.98;;
37701;SDS011;23548;51.196;6.838;2023-09-18T01:39:55;20.00;;;10.70;;
37701;SDS011;23548;51.196;6.838;2023-09-18T01:42:25;14.95;;;10.00;;
37701;SDS011;23548;51.196;6.838;2023-09-18T01:44:54;14.63;;;11.00;;
37701;SDS011;23548;51.196;6.838;2023-09-18T01:47:20;15.55;;;11.27;;
37701;SDS011;23548;51.196;6.838;2023-09-18T01:49:48;21.38;;;11.57;;
37701;SDS011;23548;51.196;6.838;2023-09-18T01:52:14;17.30;;;12.32;;
37701;SDS011;23548;51.196;6.838;2023-09-18T01:54:41;17.65;;;11.23;;
37701;SDS011;23548;51.196;6.838;2023-09-18T01:57:07;23.15;;;11.98;;
37701;SDS011;23548;51.196;6.838;2023-09-18T01:59:33;14.48;;;10.55;;
37701;SDS011;23548;51.196;6.838;2023-09-18T02:01:58;20.73;;;11.25;;
37701;SDS011;23548;51.196;6.838;2023-09-18T02:04:24;13.82;;;10.85;;
37701;SDS011;23548;51.196;6.838;2023-09-18T02:06:52;15.90;;;10.73;;
37701;SDS011;23548;51.196;6.838;2023-09-18T02:09:18;18.77;;;10.25;;
37701;SDS011;23548;51.196;6.838;2023-09-18T02:11:44;15.30;;;10.50;;
37701;SDS011;23548;51.196;6.838;2023-09-18T02:14:12;18.48;;;11.07;;
37701;SDS011;23548;51.196;6.838;2023-09-18T02:16:40;17.92;;;11.55;;
37701;SDS011;23548;51.196;6.838;2023-09-18T02:19:06;18.13;;;10.35;;
37701;SDS011;23548;51.196;6.838;2023-09-18T02:21:36;13.05;;;9.95;;
37701;SDS011;23548;51.196;6.838;2023-09-18T02:24:02;23.33;;;9.98;;
37701;SDS011;23548;51.196;6.838;2023-09-18T02:26:28;18.05;;;10.38;;
37701;SDS011;23548;51.196;6.838;2023-09-18T02:28:54;19.55;;;10.95;;
37701;SDS011;23548;51.196;6.838;2023-09-18T02:31:24;13.60;;;9.93;;
37701;SDS011;23548;51.196;6.838;2023-09-18T02:33:49;16.88;;;10.18;;
37701;SDS011;23548;51.196;6.838;2023-09-18T02:36:15;16.58;;;10.00;;
37701;SDS011;23548;51.196;6.838;2023-09-18T02:38:41;20.25;;;11.25;;
37701;SDS011;23548;51.196;6.838;2023-09-18T02:41:07;15.85;;;11.02;;
37701;SDS011;23548;51.196;6.838;2023-09-18T02:43:33;14.52;;;10.20;;
37701;SDS011;23548;51.196;6.838;2023-09-18T02:45:59;12.90;;;9.20;;
37701;SDS011;23548;51.196;6.838;2023-09-18T02:48:24;18.95;;;9.95;;
37701;SDS011;23548;51.196;6.838;2023-09-18T02:50:51;14.48;;;8.98;;
37701;SDS011;23548;51.196;6.838;2023-09-18T02:53:26;15.15;;;8.38;;
37701;SDS011;23548;51.196;6.838;2023-09-18T02:55:52;13.75;;;8.00;;
37701;SDS011;23548;51.196;6.838;2023-09-18T02:58:20;13.65;;;8.23;;
37701;SDS011;23548;51.196;6.838;2023-09-18T03:00:47;13.98;;;8.23;;
37701;SDS011;23548;51.196;6.838;2023-09-18T03:03:15;15.73;;;8.23;;
37701;SDS011;23548;51.196;6.838;2023-09-18T03:05:41;18.58;;;8.57;;
37701;SDS011;23548;51.196;6.838;2023-09-18T03:08:08;16.88;;;7.93;;
37701;SDS011;23548;51.196;6.838;2023-09-18T03:10:35;14.45;;;7.95;;
37701;SDS011;23548;51.196;6.838;2023-09-18T03:13:01;14.38;;;7.80;;
37701;SDS011;23548;51.196;6.838;2023-09-18T03:15:28;18.42;;;8.23;;
37701;SDS011;23548;51.196;6.838;2023-09-18T03:17:54;16.08;;;8.15;;
37701;SDS011;23548;51.196;6.838;2023-09-18T03:20:23;14.93;;;8.55;;
37701;SDS011;23548;51.196;6.838;2023-09-18T03:22:57;13.73;;;8.23;;
37701;SDS011;23548;51.196;6.838;2023-09-18T03:25:24;14.18;;;8.02;;
37701;SDS011;23548;51.196;6.838;2023-09-18T03:27:54;13.35;;;8.18;;
37701;SDS011;23548;51.196;6.838;2023-09-18T03:30:23;14.63;;;8.38;;
37701;SDS011;23548;51.196;6.838;2023-09-18T03:32:49;15.13;;;8.32;;
37701;SDS011;23548;51.196;6.838;2023-09-18T03:35:16;13.15;;;8.40;;
37701;SDS011;23548;51.196;6.838;2023-09-18T03:37:49;18.63;;;9.35;;
37701;SDS011;23548;51.196;6.838;2023-09-18T03:40:16;15.27;;;8.45;;
37701;SDS011;23548;51.196;6.838;2023-09-18T03:42:43;14.70;;;9.05;;
37701;SDS011;23548;51.196;6.838;2023-09-18T03:45:14;14.82;;;8.23;;
37701;SDS011;23548;51.196;6.838;2023-09-18T03:47:43;17.77;;;8.57;;
37701;SDS011;23548;51.196;6.838;2023-09-18T03:50:10;14.75;;;8.63;;
37701;SDS011;23548;51.196;6.838;2023-09-18T03:52:37;15.32;;;8.65;;
37701;SDS011;23548;51.196;6.838;2023-09-18T03:55:04;16.15;;;7.70;;
37701;SDS011;23548;51.196;6.838;2023-09-18T03:57:30;17.85;;;9.15;;
37701;SDS011;23548;51.196;6.838;2023-09-18T03:59:56;13.43;;;8.32;;
37701;SDS011;23548;51.196;6.838;2023-09-18T04:02:23;10.95;;;8.15;;
37701;SDS011;23548;51.196;6.838;2023-09-18T04:04:50;14.25;;;8.45;;
37701;SDS011;23548;51.196;6.838;2023-09-18T04:07:16;15.85;;;8.05;;
37701;SDS011;23548;51.196;6.838;2023-09-18T04:09:42;11.07;;;7.82;;
37701;SDS011;23548;51.196;6.838;2023-09-18T04:12:08;13.55;;;7.97;;
37701;SDS011;23548;51.196;6.838;2023-09-18T04:14:34;14.65;;;7.63;;
37701;SDS011;23548;51.196;6.838;2023-09-18T04:17:01;14.52;;;7.55;;
37701;SDS011;23548;51.196;6.838;2023-09-18T04:19:27;15.65;;;7.97;;
37701;SDS011;23548;51.196;6.838;2023-09-18T04:21:52;18.05;;;7.40;;
37701;SDS011;23548;51.196;6.838;2023-09-18T04:24:18;12.40;;;8.15;;
37701;SDS011;23548;51.196;6.838;2023-09-18T04:26:44;18.17;;;8.10;;
37701;SDS011;23548;51.196;6.838;2023-09-18T04:29:10;15.55;;;7.85;;
37701;SDS011;23548;51.196;6.838;2023-09-18T04:31:36;14.10;;;7.43;;
37701;SDS011;23548;51.196;6.838;2023-09-18T04:34:02;14.07;;;7.60;;
37701;SDS011;23548;51.196;6.838;2023-09-18T04:36:29;16.00;;;7.97;;
37701;SDS011;23548;51.196;6.838;2023-09-18T04:38:55;13.68;;;7.75;;
37701;SDS011;23548;51.196;6.838;2023-09-18T04:41:20;10.80;;;7.93;;
37701;SDS011;23548;51.196;6.838;2023-09-18T04:43:46;19.42;;;8.35;;
37701;SDS011;23548;51.196;6.838;2023-09-18T04:46:12;18.00;;;8.40;;
37701;SDS011;23548;51.196;6.838;2023-09-18T04:48:38;17.65;;;8.82;;
37701;SDS011;23548;51.196;6.838;2023-09-18T04:51:04;22.80;;;8.15;;
37701;SDS011;23548;51.196;6.838;2023-09-18T04:53:30;13.35;;;8.15;;
37701;SDS011;23548;51.196;6.838;2023-09-18T04:55:58;16.63;;;8.55;;
37701;SDS011;23548;51.196;6.838;2023-09-18T04:58:23;15.30;;;8.35;;
37701;SDS011;23548;51.196;6.838;2023-09-18T05:00:56;20.65;;;8.55;;
37701;SDS011;23548;51.196;6.838;2023-09-18T05:03:23;15.30;;;7.38;;
37701;SDS011;23548;51.196;6.838;2023-09-18T05:05:49;15.77;;;7.25;;
37701;SDS011;23548;51.196;6.838;2023-09-18T05:08:15;14.63;;;7.10;;
37701;SDS011;23548;51.196;6.838;2023-09-18T05:10:41;13.73;;;7.20;;
37701;SDS011;23548;51.196;6.838;2023-09-18T05:13:08;12.07;;;6.93;;
37701;SDS011;23548;51.196;6.838;2023-09-18T05:15:35;17.70;;;7.35;;
37701;SDS011;23548;51.196;6.838;2023-09-18T05:18:01;14.13;;;6.85;;
37701;SDS011;23548;51.196;6.838;2023-09-18T05:20:28;14.05;;;7.35;;
37701;SDS011;23548;51.196;6.838;2023-09-18T05:22:56;23.33;;;6.53;;
37701;SDS011;23548;51.196;6.838;2023-09-18T05:25:23;20.33;;;6.88;;
37701;SDS011;23548;51.196;6.838;2023-09-18T05:27:54;13.45;;;6.50;;
37701;SDS011;23548;51.196;6.838;2023-09-18T05:30:26;19.13;;;7.40;;
37701;SDS011;23548;51.196;6.838;2023-09-18T05:32:56;12.60;;;7.03;;
37701;SDS011;23548;51.196;6.838;2023-09-18T05:35:22;15.65;;;7.13;;
37701;SDS011;23548;51.196;6.838;2023-09-18T05:37:49;11.05;;;5.93;;
37701;SDS011;23548;51.196;6.838;2023-09-18T05:40:22;13.63;;;6.13;;
37701;SDS011;23548;51.196;6.838;2023-09-18T05:42:48;20.58;;;5.97;;
37701;SDS011;23548;51.196;6.838;2023-09-18T05:45:14;14.27;;;5.60;;
37701;SDS011;23548;51.196;6.838;2023-09-18T05:47:40;13.40;;;5.85;;
37701;SDS011;23548;51.196;6.838;2023-09-18T05:50:10;18.67;;;6.28;;
37701;SDS011;23548;51.196;6.838;2023-09-18T05:52:41;13.27;;;5.70;;
37701;SDS011;23548;51.196;6.838;2023-09-18T05:55:15;13.98;;;5.93;;
37701;SDS011;23548;51.196;6.838;2023-09-18T05:57:41;12.80;;;5.60;;
37701;SDS011;23548;51.196;6.838;2023-09-18T06:00:07;14.25;;;6.32;;
37701;SDS011;23548;51.196;6.838;2023-09-18T06:02:38;15.32;;;5.85;;
37701;SDS011;23548;51.196;6.838;2023-09-18T06:05:05;14.02;;;5.53;;
37701;SDS011;23548;51.196;6.838;2023-09-18T06:07:31;15.88;;;6.28;;
37701;SDS011;23548;51.196;6.838;2023-09-18T06:09:57;15.02;;;5.82;;
37701;SDS011;23548;51.196;6.838;2023-09-18T06:12:23;17.52;;;5.65;;
37701;SDS011;23548;51.196;6.838;2023-09-18T06:14:52;15.13;;;5.90;;
37701;SDS011;23548;51.196;6.838;2023-09-18T06:17:18;25.50;;;11.80;;
37701;SDS011;23548;51.196;6.838;2023-09-18T06:19:44;19.13;;;6.13;;
37701;SDS011;23548;51.196;6.838;2023-09-18T06:22:11;15.93;;;5.65;;
37701;SDS011;23548;51.196;6.838;2023-09-18T06:24:36;13.18;;;5.43;;
37701;SDS011;23548;51.196;6.838;2023-09-18T06:27:03;8.93;;;4.95;;
37701;SDS011;23548;51.196;6.838;2023-09-18T06:29:32;13.13;;;5.35;;
37701;SDS011;23548;51.196;6.838;2023-09-18T06:31:58;11.07;;;4.78;;
37701;SDS011;23548;51.196;6.838;2023-09-18T06:34:27;14.52;;;8.02;;
37701;SDS011;23548;51.196;6.838;2023-09-18T06:36:55;14.55;;;5.13;;
37701;SDS011;23548;51.196;6.838;2023-09-18T06:39:21;25.92;;;5.95;;
37701;SDS011;23548;51.196;6.838;2023-09-18T06:41:48;14.57;;;4.30;;
37701;SDS011;23548;51.196;6.838;2023-09-18T06:44:14;12.23;;;4.47;;
37701;SDS011;23548;51.196;6.838;2023-09-18T06:46:40;12.48;;;4.80;;
37701;SDS011;23548;51.196;6.838;2023-09-18T06:49:06;16.92;;;4.82;;
37701;SDS011;23548;51.196;6.838;2023-09-18T06:51:32;14.38;;;4.57;;
37701;SDS011;23548;51.196;6.838;2023-09-18T06:53:57;13.23;;;4.05;;
37701;SDS011;23548;51.196;6.838;2023-09-18T06:56:23;8.35;;;4.28;;
37701;SDS011;23548;51.196;6.838;2023-09-18T06:58:50;11.73;;;4.07;;
37701;SDS011;23548;51.196;6.838;2023-09-18T07:01:20;10.02;;;3.50;;
37701;SDS011;23548;51.196;6.838;2023-09-18T07:03:46;12.00;;;4.07;;
37701;SDS011;23548;51.196;6.838;2023-09-18T07:06:16;14.32;;;4.30;;
37701;SDS011;23548;51.196;6.838;2023-09-18T07:08:43;6.82;;;3.70;;
37701;SDS011;23548;51.196;6.838;2023-09-18T07:11:09;11.98;;;3.53;;
37701;SDS011;23548;51.196;6.838;2023-09-18T07:13:35;14.43;;;4.15;;
37701;SDS011;23548;51.196;6.838;2023-09-18T07:16:01;7.88;;;3.60;;
37701;SDS011;23548;51.196;6.838;2023-09-18T07:18:29;11.98;;;3.70;;
37701;SDS011;23548;51.196;6.838;2023-09-18T07:20:54;9.48;;;3.92;;
37701;SDS011;23548;51.196;6.838;2023-09-18T07:23:20;11.07;;;3.47;;
37701;SDS011;23548;51.196;6.838;2023-09-18T07:25:49;8.50;;;3.78;;
37701;SDS011;23548;51.196;6.838;2023-09-18T07:28:14;10.43;;;3.80;;
37701;SDS011;23548;51.196;6.838;2023-09-18T07:30:44;11.52;;;4.30;;
37701;SDS011;23548;51.196;6.838;2023-09-18T07:33:11;10.00;;;3.92;;
37701;SDS011;23548;51.196;6.838;2023-09-18T07:35:37;7.80;;;3.78;;
37701;SDS011;23548;51.196;6.838;2023-09-18T07:38:03;9.02;;;3.70;;
37701;SDS011;23548;51.196;6.838;2023-09-18T07:40:29;10.57;;;3.10;;
37701;SDS011;23548;51.196;6.838;2023-09-18T07:42:55;7.63;;;3.30;;
37701;SDS011;23548;51.196;6.838;2023-09-18T07:45:22;10.68;;;3.33;;
37701;SDS011;23548;51.196;6.838;2023-09-18T07:47:49;11.85;;;3.10;;
37701;SDS011;23548;51.196;6.838;2023-09-18T07:50:14;8.32;;;2.83;;
37701;SDS011;23548;51.196;6.838;2023-09-18T07:52:40;8.80;;;2.63;;
37701;SDS011;23548;51.196;6.838;2023-09-18T07:55:06;10.35;;;2.97;;
37701;SDS011;23548;51.196;6.838;2023-09-18T07:57:32;7.55;;;2.35;;
37701;SDS011;23548;51.196;6.838;2023-09-18T07:59:59;8.65;;;2.67;;
37701;SDS011;23548;51.196;6.838;2023-09-18T08:02:32;6.28;;;2.70;;
37701;SDS011;23548;51.196;6.838;2023-09-18T08:05:00;8.02;;;2.60;;
37701;SDS011;23548;51.196;6.838;2023-09-18T08:07:27;6.88;;;2.65;;
37701;SDS011;23548;51.196;6.838;2023-09-18T08:09:53;6.75;;;2.40;;
37701;SDS011;23548;51.196;6.838;2023-09-18T08:12:19;11.55;;;3.45;;
37701;SDS011;23548;51.196;6.838;2023-09-18T08:14:45;3.15;;;1.98;;
37701;SDS011;23548;51.196;6.838;2023-09-18T08:17:11;6.07;;;2.45;;
37701;SDS011;23548;51.196;6.838;2023-09-18T08:19:37;4.18;;;2.00;;
37701;SDS011;23548;51.196;6.838;2023-09-18T08:22:04;4.63;;;1.70;;
37701;SDS011;23548;51.196;6.838;2023-09-18T08:24:30;4.68;;;1.77;;
37701;SDS011;23548;51.196;6.838;2023-09-18T08:26:57;4.95;;;1.70;;
37701;SDS011;23548;51.196;6.838;2023-09-18T08:29:22;8.52;;;2.10;;
37701;SDS011;23548;51.196;6.838;2023-09-18T08:31:48;4.78;;;1.88;;
37701;SDS011;23548;51.196;6.838;2023-09-18T08:34:15;8.27;;;1.98;;
37701;SDS011;23548;51.196;6.838;2023-09-18T08:36:41;3.97;;;1.80;;
37701;SDS011;23548;51.196;6.838;2023-09-18T08:39:07;5.03;;;1.60;;
37701;SDS011;23548;51.196;6.838;2023-09-18T08:41:33;8.00;;;2.00;;
37701;SDS011;23548;51.196;6.838;2023-09-18T08:44:07;4.20;;;1.67;;
37701;SDS011;23548;51.196;6.838;2023-09-18T08:46:34;6.05;;;1.90;;
37701;SDS011;23548;51.196;6.838;2023-09-18T08:49:01;7.43;;;1.90;;
37701;SDS011;23548;51.196;6.838;2023-09-18T08:51:27;5.78;;;2.20;;
37701;SDS011;23548;51.196;6.838;2023-09-18T08:53:54;8.73;;;2.00;;
37701;SDS011;23548;51.196;6.838;2023-09-18T08:56:21;6.88;;;2.60;;
37701;SDS011;23548;51.196;6.838;2023-09-18T08:58:48;5.88;;;1.88;;
37701;SDS011;23548;51.196;6.838;2023-09-18T09:01:14;4.40;;;1.70;;
37701;SDS011;23548;51.196;6.838;2023-09-18T09:03:40;5.22;;;1.90;;
37701;SDS011;23548;51.196;6.838;2023-09-18T09:06:13;5.32;;;1.98;;
37701;SDS011;23548;51.196;6.838;2023-09-18T09:08:39;6.00;;;1.98;;
37701;SDS011;23548;51.196;6.838;2023-09-18T09:11:05;4.53;;;2.00;;
37701;SDS011;23548;51.196;6.838;2023-09-18T09:13:31;7.00;;;2.05;;
37701;SDS011;23548;51.196;6.838;2023-09-18T09:15:57;3.75;;;1.77;;
37701;SDS011;23548;51.196;6.838;2023-09-18T09:18:25;3.83;;;1.60;;
37701;SDS011;23548;51.196;6.838;2023-09-18T09:21:02;5.43;;;1.85;;
37701;SDS011;23548;51.196;6.838;2023-09-18T09:23:44;5.35;;;1.60;;
37701;SDS011;23548;51.196;6.838;2023-09-18T09:26:17;5.53;;;1.60;;
37701;SDS011;23548;51.196;6.838;2023-09-18T09:28:44;4.85;;;1.52;;
37701;SDS011;23548;51.196;6.838;2023-09-18T09:31:11;4.65;;;1.50;;
37701;SDS011;23548;51.196;6.838;2023-09-18T09:33:50;4.28;;;1.80;;
37701;SDS011;23548;51.196;6.838;2023-09-18T09:36:22;3.65;;;1.77;;
37701;SDS011;23548;51.196;6.838;2023-09-18T09:38:54;3.28;;;1.55;;
37701;SDS011;23548;51.196;6.838;2023-09-18T09:41:24;4.85;;;1.50;;
37701;SDS011;23548;51.196;6.838;2023-09-18T09:43:53;6.05;;;1.70;;
37701;SDS011;23548;51.196;6.838;2023-09-18T09:46:22;5.13;;;1.75;;
37701;SDS011;23548;51.196;6.838;2023-09-18T09:49:02;4.50;;;1.63;;
37701;SDS011;23548;51.196;6.838;2023-09-18T09:51:30;5.22;;;1.55;;
37701;SDS011;23548;51.196;6.838;2023-09-18T09:53:56;4.38;;;1.50;;
37701;SDS011;23548;51.196;6.838;2023-09-18T09:59:08;4.10;;;1.80;;
37701;SDS011;23548;51.196;6.838;2023-09-18T10:01:36;3.88;;;1.60;;
37701;SDS011;23548;51.196;6.838;2023-09-18T10:04:13;4.15;;;1.77;;
37701;SDS011;23548;51.196;6.838;2023-09-18T10:06:43;4.95;;;1.83;;
37701;SDS011;23548;51.196;6.838;2023-09-18T10:09:12;3.15;;;1.85;;
37701;SDS011;23548;51.196;6.838;2023-09-18T10:11:41;5.32;;;1.80;;
37701;SDS011;23548;51.196;6.838;2023-09-18T10:14:18;2.80;;;1.77;;
37701;SDS011;23548;51.196;6.838;2023-09-18T10:16:47;8.25;;;1.80;;
37701;SDS011;23548;51.196;6.838;2023-09-18T10:19:28;3.78;;;1.60;;
37701;SDS011;23548;51.196;6.838;2023-09-18T10:24:46;3.83;;;1.80;;
37701;SDS011;23548;51.196;6.838;2023-09-18T10:27:14;10.05;;;5.80;;
37701;SDS011;23548;51.196;6.838;2023-09-18T10:29:43;4.35;;;1.83;;
37701;SDS011;23548;51.196;6.838;2023-09-18T10:32:10;5.95;;;2.00;;
37701;SDS011;23548;51.196;6.838;2023-09-18T10:34:37;3.38;;;2.38;;
37701;SDS011;23548;51.196;6.838;2023-09-18T10:37:04;10.18;;;1.90;;
37701;SDS011;23548;51.196;6.838;2023-09-18T10:39:37;3.50;;;1.73;;
37701;SDS011;23548;51.196;6.838;2023-09-18T10:42:04;5.60;;;1.70;;
37701;SDS011;23548;51.196;6.838;2023-09-18T10:44:33;4.90;;;1.90;;
37701;SDS011;23548;51.196;6.838;2023-09-18T10:47:00;5.50;;;2.05;;
37701;SDS011;23548;51.196;6.838;2023-09-18T10:49:33;6.25;;;2.00;;
37701;SDS011;23548;51.196;6.838;2023-09-18T10:52:00;3.20;;;2.00;;
37701;SDS011;23548;51.196;6.838;2023-09-18T10:54:27;2.65;;;1.75;;
37701;SDS011;23548;51.196;6.838;2023-09-18T10:56:53;2.70;;;1.90;;
37701;SDS011;23548;51.196;6.838;2023-09-18T10:59:21;3.97;;;1.70;;
37701;SDS011;23548;51.196;6.838;2023-09-18T11:01:47;3.40;;;1.77;;
37701;SDS011;23548;51.196;6.838;2023-09-18T11:04:17;3.67;;;1.90;;
37701;SDS011;23548;51.196;6.838;2023-09-18T11:09:23;5.13;;;2.10;;
37701;SDS011;23548;51.196;6.838;2023-09-18T11:11:54;3.45;;;1.67;;
37701;SDS011;23548;51.196;6.838;2023-09-18T11:20:03;3.65;;;2.08;;
37701;SDS011;23548;51.196;6.838;2023-09-18T11:22:38;3.17;;;1.73;;
37701;SDS011;23548;51.196;6.838;2023-09-18T11:27:56;4.47;;;2.25;;
37701;SDS011;23548;51.196;6.838;2023-09-18T11:30:22;5.00;;;1.70;;
37701;SDS011;23548;51.196;6.838;2023-09-18T11:32:51;6.72;;;2.13;;
37701;SDS011;23548;51.196;6.838;2023-09-18T11:35:18;7.75;;;2.30;;
37701;SDS011;23548;51.196;6.838;2023-09-18T11:37:44;3.05;;;1.73;;
37701;SDS011;23548;51.196;6.838;2023-09-18T11:40:29;4.75;;;2.10;;
37701;SDS011;23548;51.196;6.838;2023-09-18T11:45:52;5.47;;;1.90;;
37701;SDS011;23548;51.196;6.838;2023-09-18T11:48:19;2.97;;;1.80;;
37701;SDS011;23548;51.196;6.838;2023-09-18T11:50:46;4.30;;;1.98;;
37701;SDS011;23548;51.196;6.838;2023-09-18T11:53:16;5.22;;;1.90;;
37701;SDS011;23548;51.196;6.838;2023-09-18T11:55:45;3.95;;;1.88;;
37701;SDS011;23548;51.196;6.838;2023-09-18T11:58:11;6.28;;;2.30;;
37701;SDS011;23548;51.196;6.838;2023-09-18T12:00:38;8.98;;;3.22;;
37701;SDS011;23548;51.196;6.838;2023-09-18T12:05:50;5.07;;;2.10;;
37701;SDS011;23548;51.196;6.838;2023-09-18T12:08:21;4.78;;;2.20;;
37701;SDS011;23548;51.196;6.838;2023-09-18T12:10:50;5.15;;;2.70;;
37701;SDS011;23548;51.196;6.838;2023-09-18T12:13:16;6.70;;;2.08;;
37701;SDS011;23548;51.196;6.838;2023-09-18T12:15:42;4.55;;;2.08;;
37701;SDS011;23548;51.196;6.838;2023-09-18T12:18:11;5.03;;;2.50;;
37701;SDS011;23548;51.196;6.838;2023-09-18T12:20:48;4.40;;;2.15;;
37701;SDS011;23548;51.196;6.838;2023-09-18T12:23:17;6.40;;;2.22;;
37701;SDS011;23548;51.196;6.838;2023-09-18T12:25:49;3.58;;;2.05;;
37701;SDS011;23548;51.196;6.838;2023-09-18T12:28:21;3.90;;;2.47;;
37701;SDS011;23548;51.196;6.838;2023-09-18T12:30:46;5.18;;;2.67;;
37701;SDS011;23548;51.196;6.838;2023-09-18T12:33:15;4.82;;;2.33;;
37701;SDS011;23548;51.196;6.838;2023-09-18T12:35:42;5.90;;;2.10;;
37701;SDS011;23548;51.196;6.838;2023-09-18T12:38:15;4.80;;;2.33;;
37701;SDS011;23548;51.196;6.838;2023-09-18T12:40:43;4.78;;;2.08;;
37701;SDS011;23548;51.196;6.838;2023-09-18T12:43:11;4.82;;;2.00;;
37701;SDS011;23548;51.196;6.838;2023-09-18T12:45:40;9.40;;;2.20;;
37701;SDS011;23548;51.196;6.838;2023-09-18T12:48:07;3.88;;;2.40;;
37701;SDS011;23548;51.196;6.838;2023-09-18T12:50:34;6.28;;;2.63;;
37701;SDS011;23548;51.196;6.838;2023-09-18T12:53:13;2.75;;;2.00;;
37701;SDS011;23548;51.196;6.838;2023-09-18T12:55:40;4.80;;;2.38;;
37701;SDS011;23548;51.196;6.838;2023-09-18T12:58:11;4.72;;;1.90;;
37701;SDS011;23548;51.196;6.838;2023-09-18T13:00:37;3.97;;;2.10;;
37701;SDS011;23548;51.196;6.838;2023-09-18T13:03:14;7.82;;;2.30;;
37701;SDS011;23548;51.196;6.838;2023-09-18T13:05:40;4.68;;;2.10;;
37701;SDS011;23548;51.196;6.838;2023-09-18T13:08:06;6.63;;;2.30;;
37701;SDS011;23548;51.196;6.838;2023-09-18T13:13:17;3.13;;;2.00;;
37701;SDS011;23548;51.196;6.838;2023-09-18T13:15:46;5.18;;;2.13;;
37701;SDS011;23548;51.196;6.838;2023-09-18T13:18:13;4.32;;;2.22;;
37701;SDS011;23548;51.196;6.838;2023-09-18T13:20:41;4.10;;;1.95;;
37701;SDS011;23548;51.196;6.838;2023-09-18T13:23:07;6.60;;;2.38;;
37701;SDS011;23548;51.196;6.838;2023-09-18T13:28:00;4.32;;;2.10;;
37701;SDS011;23548;51.196;6.838;2023-09-18T13:30:27;4.00;;;1.80;;
37701;SDS011;23548;51.196;6.838;2023-09-18T13:33:01;5.70;;;1.90;;
37701;SDS011;23548;51.196;6.838;2023-09-18T13:35:31;3.15;;;2.08;;
37701;SDS011;23548;51.196;6.838;2023-09-18T13:37:57;3.38;;;2.17;;
37701;SDS011;23548;51.196;6.838;2023-09-18T13:40:23;3.33;;;2.20;;
37701;SDS011;23548;51.196;6.838;2023-09-18T13:42:50;3.13;;;1.88;;
37701;SDS011;23548;51.196;6.838;2023-09-18T13:45:15;2.50;;;1.88;;
37701;SDS011;23548;51.196;6.838;2023-09-18T13:47:41;4.93;;;1.98;;
37701;SDS011;23548;51.196;6.838;2023-09-18T13:50:07;4.85;;;1.90;;
37701;SDS011;23548;51.196;6.838;2023-09-18T13:52:35;6.28;;;2.35;;
37701;SDS011;23548;51.196;6.838;2023-09-18T13:55:04;5.65;;;2.13;;
37701;SDS011;23548;51.196;6.838;2023-09-18T13:57:33;6.68;;;2.08;;
37701;SDS011;23548;51.196;6.838;2023-09-18T14:00:00;5.05;;;2.10;;
37701;SDS011;23548;51.196;6.838;2023-09-18T14:02:26;4.82;;;2.10;;
37701;SDS011;23548;51.196;6.838;2023-09-18T14:04:55;5.15;;;1.70;;
37701;SDS011;23548;51.196;6.838;2023-09-18T14:07:21;3.83;;;2.15;;
37701;SDS011;23548;51.196;6.838;2023-09-18T14:09:47;3.55;;;1.90;;
37701;SDS011;23548;51.196;6.838;2023-09-18T14:12:13;3.20;;;1.80;;
37701;SDS011;23548;51.196;6.838;2023-09-18T14:14:40;4.10;;;1.83;;
37701;SDS011;23548;51.196;6.838;2023-09-18T14:17:07;18.73;;;2.05;;
37701;SDS011;23548;51.196;6.838;2023-09-18T14:19:33;2.45;;;1.58;;
37701;SDS011;23548;51.196;6.838;2023-09-18T14:22:00;4.07;;;1.67;;
37701;SDS011;23548;51.196;6.838;2023-09-18T14:24:32;4.88;;;2.05;;
37701;SDS011;23548;51.196;6.838;2023-09-18T14:27:02;4.40;;;1.90;;
37701;SDS011;23548;51.196;6.838;2023-09-18T14:29:28;3.95;;;2.10;;
37701;SDS011;23548;51.196;6.838;2023-09-18T14:31:58;5.85;;;2.00;;
37701;SDS011;23548;51.196;6.838;2023-09-18T14:34:29;4.38;;;1.98;;
37701;SDS011;23548;51.196;6.838;2023-09-18T14:36:55;4.28;;;1.90;;
37701;SDS011;23548;51.196;6.838;2023-09-18T14:39:24;2.72;;;1.95;;
37701;SDS011;23548;51.196;6.838;2023-09-18T14:41:50;4.53;;;1.90;;
37701;SDS011;23548;51.196;6.838;2023-09-18T14:44:16;3.38;;;1.88;;
37701;SDS011;23548;51.196;6.838;2023-09-18T14:46:42;3.13;;;2.10;;
37701;SDS011;23548;51.196;6.838;2023-09-18T14:49:09;2.90;;;1.88;;
37701;SDS011;23548;51.196;6.838;2023-09-18T14:51:35;4.03;;;1.90;;
37701;SDS011;23548;51.196;6.838;2023-09-18T14:54:00;3.58;;;1.70;;
37701;SDS011;23548;51.196;6.838;2023-09-18T14:56:27;3.55;;;1.80;;
37701;SDS011;23548;51.196;6.838;2023-09-18T14:58:53;5.55;;;2.10;;
37701;SDS011;23548;51.196;6.838;2023-09-18T15:01:20;4.88;;;2.03;;
37701;SDS011;23548;51.196;6.838;2023-09-18T15:03:47;3.47;;;1.92;;
37701;SDS011;23548;51.196;6.838;2023-09-18T15:06:16;3.05;;;1.92;;
37701;SDS011;23548;51.196;6.838;2023-09-18T15:08:42;4.97;;;1.92;;
37701;SDS011;23548;51.196;6.838;2023-09-18T15:11:08;3.92;;;2.25;;
37701;SDS011;23548;51.196;6.838;2023-09-18T15:13:34;2.55;;;1.70;;
37701;SDS011;23548;51.196;6.838;2023-09-18T15:16:01;5.82;;;2.00;;